Ten'yo — JBBC — position and weather

sailwx.info

Track history (hours):
 
Tides and Currents Weather Stations Pressure Air Temp Water Temp Dewpoint Dewpoint Depression Visibility Wind Speed Wind Dir Waves Ship Positions

Oceanographic research ship Ten'yo (Japan)

Detailed information on ship capabilities available from University of Delaware's Ocean Information Center.

Last reported at 2017-Apr-19 09:20 UTC. Time now 2017-Apr-27 19:02 UTC.
Position N 34°49' E 139°09'.
Warning: this ship's position is 8 days out of date.

Length 56 m.

Type: Other ship. MMSI: 431100350.

Date/timePositionNaut miles runAvg speedWind from/ knotsBaromVisibWave heightAir tempDewpointWater temp
2017-Apr-19 09:20N 34°49' E 139°09'3 9.7
2017-Apr-19 09:00N 34°52' E 139°11'14 8.5
2017-Apr-19 07:20N 34°59' E 139°26'3 8.4
2017-Apr-19 07:00N 35°00' E 139°29'4 8.4
2017-Apr-19 06:30N 35°02' E 139°34'4 8.7
2017-Apr-19 06:00N 35°04' E 139°38'4 8.8
2017-Apr-19 05:30N 35°07' E 139°43'4 7.8
2017-Apr-19 05:00N 35°10' E 139°45'5 9.4
2017-Apr-19 04:30N 35°15' E 139°46'611.2
2017-Apr-19 04:00N 35°19' E 139°43'510.3
2017-Apr-19 03:30N 35°25' E 139°44'510.5
2017-Apr-19 03:00N 35°28' E 139°49'5 9.6
2017-Apr-19 02:30N 35°32' E 139°51'611.1
2017-Apr-19 02:00N 35°36' E 139°46'2 3.2
2017-Apr-19 01:30N 35°38' E 139°47'0 0.0
2017-Apr-19 01:00N 35°38' E 139°47'0 0.0
2017-Apr-19 00:26N 35°38' E 139°47'0 0.0
2017-Apr-18 23:56N 35°38' E 139°47'  
Track history (hours):
 
Tides and Currents Weather Stations Pressure Air Temp Water Temp Dewpoint Dewpoint Depression Visibility Wind Speed Wind Dir Waves Ship Positions

Oceanographic research ship Ten'yo (Japan)

Detailed information on ship capabilities available from University of Delaware's Ocean Information Center.

Last reported at 2017-Apr-19 09:20 UTC. Time now 2017-Apr-27 19:02 UTC.
Position N 34°49' E 139°09'.
Warning: this ship's position is 8 days out of date.

Length 56 m.

Type: Other ship. MMSI: 431100350.

Date/timePositionNaut miles runAvg speedWind from/ knotsBaromVisibWave heightAir tempDewpointWater temp
2017-Apr-19 09:20N 34°49' E 139°09'3 9.7
2017-Apr-19 09:00N 34°52' E 139°11'14 8.5
2017-Apr-19 07:20N 34°59' E 139°26'3 8.4
2017-Apr-19 07:00N 35°00' E 139°29'4 8.4
2017-Apr-19 06:30N 35°02' E 139°34'4 8.7
2017-Apr-19 06:00N 35°04' E 139°38'4 8.8
2017-Apr-19 05:30N 35°07' E 139°43'4 7.8
2017-Apr-19 05:00N 35°10' E 139°45'5 9.4
2017-Apr-19 04:30N 35°15' E 139°46'611.2
2017-Apr-19 04:00N 35°19' E 139°43'510.3
2017-Apr-19 03:30N 35°25' E 139°44'510.5
2017-Apr-19 03:00N 35°28' E 139°49'5 9.6
2017-Apr-19 02:30N 35°32' E 139°51'611.1
2017-Apr-19 02:00N 35°36' E 139°46'2 3.2
2017-Apr-19 01:30N 35°38' E 139°47'0 0.0
2017-Apr-19 01:00N 35°38' E 139°47'0 0.0
2017-Apr-19 00:26N 35°38' E 139°47'0 0.0
2017-Apr-18 23:56N 35°38' E 139°47'  

Dump ship's entire track history